sensor_id;sensor_type;location;lat;lon;timestamp;temperature;humidity
5457;DHT22;2751;49.802;9.944;2023-09-30T00:01:27;17.60;99.90
5457;DHT22;2751;49.802;9.944;2023-09-30T00:03:54;17.50;99.90
5457;DHT22;2751;49.802;9.944;2023-09-30T00:06:20;17.50;99.90
5457;DHT22;2751;49.802;9.944;2023-09-30T00:08:47;17.40;99.90
5457;DHT22;2751;49.802;9.944;2023-09-30T00:11:15;17.40;99.90
5457;DHT22;2751;49.802;9.944;2023-09-30T00:13:44;17.30;99.90
5457;DHT22;2751;49.802;9.944;2023-09-30T00:16:11;17.20;99.90
5457;DHT22;2751;49.802;9.944;2023-09-30T00:18:39;17.10;99.90
5457;DHT22;2751;49.802;9.944;2023-09-30T00:21:06;17.00;99.90
5457;DHT22;2751;49.802;9.944;2023-09-30T00:23:33;16.90;99.90
5457;DHT22;2751;49.802;9.944;2023-09-30T00:26:00;16.80;99.90
5457;DHT22;2751;49.802;9.944;2023-09-30T00:28:27;16.80;99.90
5457;DHT22;2751;49.802;9.944;2023-09-30T00:30:56;16.80;99.90
5457;DHT22;2751;49.802;9.944;2023-09-30T00:33:23;16.80;99.90
5457;DHT22;2751;49.802;9.944;2023-09-30T00:35:50;16.70;99.90
5457;DHT22;2751;49.802;9.944;2023-09-30T00:38:17;16.70;99.90
5457;DHT22;2751;49.802;9.944;2023-09-30T00:40:47;16.70;99.90
5457;DHT22;2751;49.802;9.944;2023-09-30T00:43:18;16.60;99.90
5457;DHT22;2751;49.802;9.944;2023-09-30T00:45:45;16.60;99.90
5457;DHT22;2751;49.802;9.944;2023-09-30T00:48:14;16.60;99.90
5457;DHT22;2751;49.802;9.944;2023-09-30T00:50:41;16.60;99.90
5457;DHT22;2751;49.802;9.944;2023-09-30T00:53:07;16.60;99.90
5457;DHT22;2751;49.802;9.944;2023-09-30T00:55:36;16.60;99.90
5457;DHT22;2751;49.802;9.944;2023-09-30T00:58:03;16.60;99.90
5457;DHT22;2751;49.802;9.944;2023-09-30T01:00:31;16.60;99.90
5457;DHT22;2751;49.802;9.944;2023-09-30T01:02:58;16.60;99.90
5457;DHT22;2751;49.802;9.944;2023-09-30T01:05:30;16.60;99.90
5457;DHT22;2751;49.802;9.944;2023-09-30T01:07:58;16.60;99.90
5457;DHT22;2751;49.802;9.944;2023-09-30T01:10:25;16.60;99.90
5457;DHT22;2751;49.802;9.944;2023-09-30T01:12:53;16.60;99.90
5457;DHT22;2751;49.802;9.944;2023-09-30T01:15:20;16.60;99.90
5457;DHT22;2751;49.802;9.944;2023-09-30T01:17:46;16.70;99.90
5457;DHT22;2751;49.802;9.944;2023-09-30T01:20:15;16.60;99.90
5457;DHT22;2751;49.802;9.944;2023-09-30T01:22:43;16.70;99.90
5457;DHT22;2751;49.802;9.944;2023-09-30T01:25:11;16.70;99.90
5457;DHT22;2751;49.802;9.944;2023-09-30T01:27:38;16.70;99.90
5457;DHT22;2751;49.802;9.944;2023-09-30T01:30:06;16.70;99.90
5457;DHT22;2751;49.802;9.944;2023-09-30T01:32:36;16.70;99.90
5457;DHT22;2751;49.802;9.944;2023-09-30T01:35:03;16.70;99.90
5457;DHT22;2751;49.802;9.944;2023-09-30T01:37:30;16.70;99.90
5457;DHT22;2751;49.802;9.944;2023-09-30T01:39:59;16.70;99.90
5457;DHT22;2751;49.802;9.944;2023-09-30T01:42:26;16.80;99.90
5457;DHT22;2751;49.802;9.944;2023-09-30T01:44:53;16.80;99.90
5457;DHT22;2751;49.802;9.944;2023-09-30T01:47:20;16.80;99.90
5457;DHT22;2751;49.802;9.944;2023-09-30T01:49:46;16.80;99.90
5457;DHT22;2751;49.802;9.944;2023-09-30T01:52:13;16.80;99.90
5457;DHT22;2751;49.802;9.944;2023-09-30T01:54:40;16.80;99.90
5457;DHT22;2751;49.802;9.944;2023-09-30T01:57:08;16.90;99.90
5457;DHT22;2751;49.802;9.944;2023-09-30T01:59:35;16.80;99.90
5457;DHT22;2751;49.802;9.944;2023-09-30T02:02:02;16.80;99.90
5457;DHT22;2751;49.802;9.944;2023-09-30T02:04:29;16.80;99.90
5457;DHT22;2751;49.802;9.944;2023-09-30T02:06:56;16.80;99.90
5457;DHT22;2751;49.802;9.944;2023-09-30T02:09:23;16.90;99.90
5457;DHT22;2751;49.802;9.944;2023-09-30T02:11:50;16.90;99.90
5457;DHT22;2751;49.802;9.944;2023-09-30T02:14:18;16.90;99.90
5457;DHT22;2751;49.802;9.944;2023-09-30T02:16:46;16.80;99.90
5457;DHT22;2751;49.802;9.944;2023-09-30T02:19:13;16.80;99.90
5457;DHT22;2751;49.802;9.944;2023-09-30T02:21:39;16.80;99.90
5457;DHT22;2751;49.802;9.944;2023-09-30T02:24:07;16.80;99.90
5457;DHT22;2751;49.802;9.944;2023-09-30T02:26:33;16.90;99.90
5457;DHT22;2751;49.802;9.944;2023-09-30T02:29:00;16.90;99.90
5457;DHT22;2751;49.802;9.944;2023-09-30T02:31:29;16.90;99.90
5457;DHT22;2751;49.802;9.944;2023-09-30T02:33:55;16.80;99.90
5457;DHT22;2751;49.802;9.944;2023-09-30T02:36:22;16.70;99.90
5457;DHT22;2751;49.802;9.944;2023-09-30T02:38:49;16.70;99.90
5457;DHT22;2751;49.802;9.944;2023-09-30T02:41:16;16.70;99.90
5457;DHT22;2751;49.802;9.944;2023-09-30T02:43:43;16.70;99.90
5457;DHT22;2751;49.802;9.944;2023-09-30T02:46:10;16.80;99.90
5457;DHT22;2751;49.802;9.944;2023-09-30T02:48:39;16.70;99.90
5457;DHT22;2751;49.802;9.944;2023-09-30T02:51:09;16.70;99.90
5457;DHT22;2751;49.802;9.944;2023-09-30T02:53:37;16.70;99.90
5457;DHT22;2751;49.802;9.944;2023-09-30T02:56:04;16.60;99.90
5457;DHT22;2751;49.802;9.944;2023-09-30T02:58:31;16.60;99.90
5457;DHT22;2751;49.802;9.944;2023-09-30T03:00:58;16.60;99.90
5457;DHT22;2751;49.802;9.944;2023-09-30T03:03:25;16.50;99.90
5457;DHT22;2751;49.802;9.944;2023-09-30T03:05:54;16.50;99.90
5457;DHT22;2751;49.802;9.944;2023-09-30T03:08:21;16.50;99.90
5457;DHT22;2751;49.802;9.944;2023-09-30T03:10:50;16.10;99.90
5457;DHT22;2751;49.802;9.944;2023-09-30T03:13:18;16.40;99.90
5457;DHT22;2751;49.802;9.944;2023-09-30T03:15:47;16.40;99.90
5457;DHT22;2751;49.802;9.944;2023-09-30T03:18:15;16.40;99.90
5457;DHT22;2751;49.802;9.944;2023-09-30T03:20:42;16.40;99.90
5457;DHT22;2751;49.802;9.944;2023-09-30T03:23:11;16.30;99.90
5457;DHT22;2751;49.802;9.944;2023-09-30T03:25:39;16.30;99.90
5457;DHT22;2751;49.802;9.944;2023-09-30T03:28:07;16.20;99.90
5457;DHT22;2751;49.802;9.944;2023-09-30T03:30:34;16.20;99.90
5457;DHT22;2751;49.802;9.944;2023-09-30T03:33:01;16.20;99.90
5457;DHT22;2751;49.802;9.944;2023-09-30T03:35:30;16.20;99.90
5457;DHT22;2751;49.802;9.944;2023-09-30T03:37:57;16.20;99.90
5457;DHT22;2751;49.802;9.944;2023-09-30T03:40:27;16.10;99.90
5457;DHT22;2751;49.802;9.944;2023-09-30T03:42:59;16.10;99.90
5457;DHT22;2751;49.802;9.944;2023-09-30T03:45:26;16.10;99.90
5457;DHT22;2751;49.802;9.944;2023-09-30T03:47:53;16.10;99.90
5457;DHT22;2751;49.802;9.944;2023-09-30T03:50:20;16.00;99.90
5457;DHT22;2751;49.802;9.944;2023-09-30T03:52:49;16.10;99.90
5457;DHT22;2751;49.802;9.944;2023-09-30T03:55:16;16.00;99.90
5457;DHT22;2751;49.802;9.944;2023-09-30T03:57:47;16.00;99.90
5457;DHT22;2751;49.802;9.944;2023-09-30T04:00:14;16.00;99.90
5457;DHT22;2751;49.802;9.944;2023-09-30T04:02:44;16.00;99.90
5457;DHT22;2751;49.802;9.944;2023-09-30T04:05:14;16.00;99.90
5457;DHT22;2751;49.802;9.944;2023-09-30T04:07:42;16.00;99.90
5457;DHT22;2751;49.802;9.944;2023-09-30T04:10:10;15.90;99.90
5457;DHT22;2751;49.802;9.944;2023-09-30T04:12:37;15.90;99.90
5457;DHT22;2751;49.802;9.944;2023-09-30T04:15:06;15.90;99.90
5457;DHT22;2751;49.802;9.944;2023-09-30T04:17:35;15.80;99.90
5457;DHT22;2751;49.802;9.944;2023-09-30T04:20:05;15.80;99.90
5457;DHT22;2751;49.802;9.944;2023-09-30T04:22:34;15.80;99.90
5457;DHT22;2751;49.802;9.944;2023-09-30T04:25:01;15.80;99.90
5457;DHT22;2751;49.802;9.944;2023-09-30T04:27:30;15.70;99.90
5457;DHT22;2751;49.802;9.944;2023-09-30T04:29:57;15.70;99.90
5457;DHT22;2751;49.802;9.944;2023-09-30T04:32:25;15.70;99.90
5457;DHT22;2751;49.802;9.944;2023-09-30T04:34:53;15.70;99.90
5457;DHT22;2751;49.802;9.944;2023-09-30T04:37:20;15.60;99.90
5457;DHT22;2751;49.802;9.944;2023-09-30T04:39:47;15.60;99.90
5457;DHT22;2751;49.802;9.944;2023-09-30T04:42:14;15.60;99.90
5457;DHT22;2751;49.802;9.944;2023-09-30T04:44:43;15.60;99.90
5457;DHT22;2751;49.802;9.944;2023-09-30T04:47:10;15.60;99.90
5457;DHT22;2751;49.802;9.944;2023-09-30T04:49:38;15.60;99.90
5457;DHT22;2751;49.802;9.944;2023-09-30T04:52:05;15.60;99.90
5457;DHT22;2751;49.802;9.944;2023-09-30T04:54:33;15.50;99.90
5457;DHT22;2751;49.802;9.944;2023-09-30T04:57:00;15.50;99.90
5457;DHT22;2751;49.802;9.944;2023-09-30T04:59:27;15.50;99.90
5457;DHT22;2751;49.802;9.944;2023-09-30T05:01:55;15.40;99.90
5457;DHT22;2751;49.802;9.944;2023-09-30T05:04:22;15.40;99.90
5457;DHT22;2751;49.802;9.944;2023-09-30T05:06:52;15.40;99.90
5457;DHT22;2751;49.802;9.944;2023-09-30T05:09:19;15.40;99.90
5457;DHT22;2751;49.802;9.944;2023-09-30T05:11:46;15.40;99.90
5457;DHT22;2751;49.802;9.944;2023-09-30T05:14:13;15.30;99.90
5457;DHT22;2751;49.802;9.944;2023-09-30T05:16:42;15.30;99.90
5457;DHT22;2751;49.802;9.944;2023-09-30T05:19:09;15.20;99.90
5457;DHT22;2751;49.802;9.944;2023-09-30T05:21:36;15.20;99.90
5457;DHT22;2751;49.802;9.944;2023-09-30T05:24:05;15.20;99.90
5457;DHT22;2751;49.802;9.944;2023-09-30T05:26:32;15.20;99.90
5457;DHT22;2751;49.802;9.944;2023-09-30T05:28:59;15.20;99.90
5457;DHT22;2751;49.802;9.944;2023-09-30T05:31:26;15.20;99.90
5457;DHT22;2751;49.802;9.944;2023-09-30T05:33:53;15.20;99.90
5457;DHT22;2751;49.802;9.944;2023-09-30T05:36:20;15.30;99.90
5457;DHT22;2751;49.802;9.944;2023-09-30T05:38:47;15.30;99.90
5457;DHT22;2751;49.802;9.944;2023-09-30T05:41:15;15.30;99.90
5457;DHT22;2751;49.802;9.944;2023-09-30T05:43:42;15.40;99.90
5457;DHT22;2751;49.802;9.944;2023-09-30T05:46:10;15.40;99.90
5457;DHT22;2751;49.802;9.944;2023-09-30T05:48:37;15.50;99.90
5457;DHT22;2751;49.802;9.944;2023-09-30T05:51:05;15.50;99.90
5457;DHT22;2751;49.802;9.944;2023-09-30T05:53:32;15.50;99.90
5457;DHT22;2751;49.802;9.944;2023-09-30T05:55:59;15.50;99.90
5457;DHT22;2751;49.802;9.944;2023-09-30T05:58:28;15.60;99.90
5457;DHT22;2751;49.802;9.944;2023-09-30T06:00:54;15.60;99.90
5457;DHT22;2751;49.802;9.944;2023-09-30T06:03:21;15.60;99.90
5457;DHT22;2751;49.802;9.944;2023-09-30T06:05:48;15.60;99.90
5457;DHT22;2751;49.802;9.944;2023-09-30T06:08:15;15.60;99.90
5457;DHT22;2751;49.802;9.944;2023-09-30T06:10:42;15.60;99.90
5457;DHT22;2751;49.802;9.944;2023-09-30T06:13:09;15.70;99.90
5457;DHT22;2751;49.802;9.944;2023-09-30T06:15:39;15.70;99.90
5457;DHT22;2751;49.802;9.944;2023-09-30T06:18:07;15.80;99.90
5457;DHT22;2751;49.802;9.944;2023-09-30T06:20:35;15.80;99.90
5457;DHT22;2751;49.802;9.944;2023-09-30T06:23:02;15.80;99.90
5457;DHT22;2751;49.802;9.944;2023-09-30T06:25:29;15.80;99.90
5457;DHT22;2751;49.802;9.944;2023-09-30T06:27:58;15.70;99.90
5457;DHT22;2751;49.802;9.944;2023-09-30T06:30:25;15.80;99.90
5457;DHT22;2751;49.802;9.944;2023-09-30T06:32:56;15.90;99.90
5457;DHT22;2751;49.802;9.944;2023-09-30T06:35:25;16.00;99.90
5457;DHT22;2751;49.802;9.944;2023-09-30T06:37:52;16.00;99.90
5457;DHT22;2751;49.802;9.944;2023-09-30T06:40:19;16.10;99.90
5457;DHT22;2751;49.802;9.944;2023-09-30T06:42:46;16.10;99.90
5457;DHT22;2751;49.802;9.944;2023-09-30T06:45:13;16.10;99.90
5457;DHT22;2751;49.802;9.944;2023-09-30T06:47:41;16.20;99.90
5457;DHT22;2751;49.802;9.944;2023-09-30T06:50:11;16.20;99.90
5457;DHT22;2751;49.802;9.944;2023-09-30T06:52:42;16.20;99.90
5457;DHT22;2751;49.802;9.944;2023-09-30T06:55:11;16.20;99.90
5457;DHT22;2751;49.802;9.944;2023-09-30T06:57:40;16.30;99.90
5457;DHT22;2751;49.802;9.944;2023-09-30T07:00:09;16.50;99.90
5457;DHT22;2751;49.802;9.944;2023-09-30T07:02:38;16.50;99.90
5457;DHT22;2751;49.802;9.944;2023-09-30T07:05:06;16.60;99.90
5457;DHT22;2751;49.802;9.944;2023-09-30T07:07:35;16.70;99.90
5457;DHT22;2751;49.802;9.944;2023-09-30T07:10:02;16.80;99.90
5457;DHT22;2751;49.802;9.944;2023-09-30T07:12:29;16.80;99.90
5457;DHT22;2751;49.802;9.944;2023-09-30T07:14:58;16.70;99.90
5457;DHT22;2751;49.802;9.944;2023-09-30T07:17:24;16.80;99.90
5457;DHT22;2751;49.802;9.944;2023-09-30T07:19:52;16.80;99.90
5457;DHT22;2751;49.802;9.944;2023-09-30T07:22:19;17.20;99.90
5457;DHT22;2751;49.802;9.944;2023-09-30T07:24:47;17.50;99.90
5457;DHT22;2751;49.802;9.944;2023-09-30T07:27:14;17.90;99.90
5457;DHT22;2751;49.802;9.944;2023-09-30T07:29:41;18.20;99.90
5457;DHT22;2751;49.802;9.944;2023-09-30T07:32:08;18.40;99.90
5457;DHT22;2751;49.802;9.944;2023-09-30T07:34:35;18.80;99.90
5457;DHT22;2751;49.802;9.944;2023-09-30T07:37:02;19.40;99.90
5457;DHT22;2751;49.802;9.944;2023-09-30T07:39:29;20.00;99.90
5457;DHT22;2751;49.802;9.944;2023-09-30T07:41:57;20.40;99.90
5457;DHT22;2751;49.802;9.944;2023-09-30T07:44:24;20.90;99.90
5457;DHT22;2751;49.802;9.944;2023-09-30T07:46:51;20.90;99.90
5457;DHT22;2751;49.802;9.944;2023-09-30T07:49:18;21.20;99.90
5457;DHT22;2751;49.802;9.944;2023-09-30T07:51:45;21.50;99.90
5457;DHT22;2751;49.802;9.944;2023-09-30T07:54:12;21.80;99.90
5457;DHT22;2751;49.802;9.944;2023-09-30T07:56:39;21.60;99.90
5457;DHT22;2751;49.802;9.944;2023-09-30T07:59:08;22.10;99.90
5457;DHT22;2751;49.802;9.944;2023-09-30T08:01:35;22.30;99.90
5457;DHT22;2751;49.802;9.944;2023-09-30T08:04:03;22.20;99.90
5457;DHT22;2751;49.802;9.944;2023-09-30T08:06:29;22.80;99.90
5457;DHT22;2751;49.802;9.944;2023-09-30T08:08:56;23.20;99.90
5457;DHT22;2751;49.802;9.944;2023-09-30T08:11:24;23.20;99.90
5457;DHT22;2751;49.802;9.944;2023-09-30T08:13:53;23.70;99.90
5457;DHT22;2751;49.802;9.944;2023-09-30T08:16:21;24.20;99.90
5457;DHT22;2751;49.802;9.944;2023-09-30T08:18:48;24.50;99.90
5457;DHT22;2751;49.802;9.944;2023-09-30T08:21:15;23.90;99.90
5457;DHT22;2751;49.802;9.944;2023-09-30T08:23:42;24.40;99.90
5457;DHT22;2751;49.802;9.944;2023-09-30T08:26:09;24.60;99.90
5457;DHT22;2751;49.802;9.944;2023-09-30T08:28:37;24.90;99.90
5457;DHT22;2751;49.802;9.944;2023-09-30T08:31:04;25.60;99.90
5457;DHT22;2751;49.802;9.944;2023-09-30T08:33:33;25.60;99.90
5457;DHT22;2751;49.802;9.944;2023-09-30T08:36:02;25.60;99.90
5457;DHT22;2751;49.802;9.944;2023-09-30T08:38:33;25.90;99.50
5457;DHT22;2751;49.802;9.944;2023-09-30T08:41:00;26.20;98.70
5457;DHT22;2751;49.802;9.944;2023-09-30T08:43:28;26.40;97.90
5457;DHT22;2751;49.802;9.944;2023-09-30T08:45:57;26.90;96.70
5457;DHT22;2751;49.802;9.944;2023-09-30T08:48:26;27.50;95.60
5457;DHT22;2751;49.802;9.944;2023-09-30T08:50:55;27.90;94.50
5457;DHT22;2751;49.802;9.944;2023-09-30T08:53:23;28.30;93.20
5457;DHT22;2751;49.802;9.944;2023-09-30T08:55:53;28.10;92.30
5457;DHT22;2751;49.802;9.944;2023-09-30T08:58:23;26.70;93.70
5457;DHT22;2751;49.802;9.944;2023-09-30T09:00:51;25.80;94.10
5457;DHT22;2751;49.802;9.944;2023-09-30T09:03:19;25.40;94.20
5457;DHT22;2751;49.802;9.944;2023-09-30T09:05:46;26.00;94.60
5457;DHT22;2751;49.802;9.944;2023-09-30T09:08:14;25.70;94.00
5457;DHT22;2751;49.802;9.944;2023-09-30T09:10:53;25.80;95.50
5457;DHT22;2751;49.802;9.944;2023-09-30T09:13:20;26.20;93.70
5457;DHT22;2751;49.802;9.944;2023-09-30T09:15:47;27.10;92.50
5457;DHT22;2751;49.802;9.944;2023-09-30T09:18:30;28.10;91.20
5457;DHT22;2751;49.802;9.944;2023-09-30T09:21:08;28.60;90.00
5457;DHT22;2751;49.802;9.944;2023-09-30T09:23:41;28.40;89.70
5457;DHT22;2751;49.802;9.944;2023-09-30T09:26:09;28.00;88.60
5457;DHT22;2751;49.802;9.944;2023-09-30T09:28:37;26.70;91.00
5457;DHT22;2751;49.802;9.944;2023-09-30T09:31:23;24.40;92.60
5457;DHT22;2751;49.802;9.944;2023-09-30T09:33:50;24.70;93.20
5457;DHT22;2751;49.802;9.944;2023-09-30T09:36:18;25.90;92.00
5457;DHT22;2751;49.802;9.944;2023-09-30T09:38:48;26.20;91.20
5457;DHT22;2751;49.802;9.944;2023-09-30T09:41:18;25.00;92.70
5457;DHT22;2751;49.802;9.944;2023-09-30T09:43:48;24.50;92.80
5457;DHT22;2751;49.802;9.944;2023-09-30T09:46:16;24.00;92.80
5457;DHT22;2751;49.802;9.944;2023-09-30T09:48:45;24.30;93.30
5457;DHT22;2751;49.802;9.944;2023-09-30T09:51:13;24.40;92.90
5457;DHT22;2751;49.802;9.944;2023-09-30T09:53:41;24.30;93.20
5457;DHT22;2751;49.802;9.944;2023-09-30T09:56:10;24.20;93.20
5457;DHT22;2751;49.802;9.944;2023-09-30T09:58:40;24.80;93.00
5457;DHT22;2751;49.802;9.944;2023-09-30T10:01:09;26.40;91.70
5457;DHT22;2751;49.802;9.944;2023-09-30T10:03:37;26.40;91.00
5457;DHT22;2751;49.802;9.944;2023-09-30T10:06:05;25.10;91.50
5457;DHT22;2751;49.802;9.944;2023-09-30T10:08:35;24.40;91.80
5457;DHT22;2751;49.802;9.944;2023-09-30T10:11:03;23.80;92.90
5457;DHT22;2751;49.802;9.944;2023-09-30T10:13:54;23.20;93.10
5457;DHT22;2751;49.802;9.944;2023-09-30T10:16:47;22.60;93.50
5457;DHT22;2751;49.802;9.944;2023-09-30T10:19:16;22.30;93.30
5457;DHT22;2751;49.802;9.944;2023-09-30T10:22:21;21.90;93.90
5457;DHT22;2751;49.802;9.944;2023-09-30T10:24:50;21.40;95.10
5457;DHT22;2751;49.802;9.944;2023-09-30T10:27:34;21.00;96.00
5457;DHT22;2751;49.802;9.944;2023-09-30T10:30:08;20.80;96.80
5457;DHT22;2751;49.802;9.944;2023-09-30T10:33:12;20.90;97.20
5457;DHT22;2751;49.802;9.944;2023-09-30T10:35:47;20.80;98.00
5457;DHT22;2751;49.802;9.944;2023-09-30T10:38:36;20.40;97.80
5457;DHT22;2751;49.802;9.944;2023-09-30T10:41:03;20.30;97.80
5457;DHT22;2751;49.802;9.944;2023-09-30T10:43:31;20.30;98.60
5457;DHT22;2751;49.802;9.944;2023-09-30T10:46:00;20.20;98.70
5457;DHT22;2751;49.802;9.944;2023-09-30T10:48:37;20.10;99.00
5457;DHT22;2751;49.802;9.944;2023-09-30T10:51:14;20.20;98.80
5457;DHT22;2751;49.802;9.944;2023-09-30T10:53:49;20.50;98.70
5457;DHT22;2751;49.802;9.944;2023-09-30T10:56:18;20.70;98.90
5457;DHT22;2751;49.802;9.944;2023-09-30T10:58:46;21.20;98.10
5457;DHT22;2751;49.802;9.944;2023-09-30T11:01:16;23.20;96.60
5457;DHT22;2751;49.802;9.944;2023-09-30T11:03:44;24.90;94.10
5457;DHT22;2751;49.802;9.944;2023-09-30T11:06:12;26.90;92.00
5457;DHT22;2751;49.802;9.944;2023-09-30T11:08:45;28.60;88.80
5457;DHT22;2751;49.802;9.944;2023-09-30T11:11:13;28.10;86.20
5457;DHT22;2751;49.802;9.944;2023-09-30T11:13:40;26.40;88.90
5457;DHT22;2751;49.802;9.944;2023-09-30T11:16:07;26.60;88.90
5457;DHT22;2751;49.802;9.944;2023-09-30T11:18:35;28.70;85.10
5457;DHT22;2751;49.802;9.944;2023-09-30T11:21:05;30.00;79.50
5457;DHT22;2751;49.802;9.944;2023-09-30T11:23:32;29.50;76.90
5457;DHT22;2751;49.802;9.944;2023-09-30T11:25:59;29.60;78.10
5457;DHT22;2751;49.802;9.944;2023-09-30T11:28:35;28.50;79.80
5457;DHT22;2751;49.802;9.944;2023-09-30T11:31:03;27.30;80.50
5457;DHT22;2751;49.802;9.944;2023-09-30T11:33:31;26.50;82.70
5457;DHT22;2751;49.802;9.944;2023-09-30T11:36:03;25.30;81.40
5457;DHT22;2751;49.802;9.944;2023-09-30T11:38:31;24.30;85.00
5457;DHT22;2751;49.802;9.944;2023-09-30T11:40:59;23.50;86.20
5457;DHT22;2751;49.802;9.944;2023-09-30T11:43:25;23.40;86.50
5457;DHT22;2751;49.802;9.944;2023-09-30T11:46:03;23.00;88.80
5457;DHT22;2751;49.802;9.944;2023-09-30T11:48:30;22.20;90.10
5457;DHT22;2751;49.802;9.944;2023-09-30T11:50:58;21.80;88.80
5457;DHT22;2751;49.802;9.944;2023-09-30T11:53:28;21.70;88.80
5457;DHT22;2751;49.802;9.944;2023-09-30T11:55:56;21.50;89.30
5457;DHT22;2751;49.802;9.944;2023-09-30T11:58:25;21.80;89.00
5457;DHT22;2751;49.802;9.944;2023-09-30T12:00:54;22.00;88.40
5457;DHT22;2751;49.802;9.944;2023-09-30T12:03:23;22.00;87.60
5457;DHT22;2751;49.802;9.944;2023-09-30T12:05:51;21.70;87.80
5457;DHT22;2751;49.802;9.944;2023-09-30T12:08:20;21.60;86.90
5457;DHT22;2751;49.802;9.944;2023-09-30T12:10:49;21.50;86.20
5457;DHT22;2751;49.802;9.944;2023-09-30T12:13:16;21.40;85.50
5457;DHT22;2751;49.802;9.944;2023-09-30T12:15:44;21.20;86.90
5457;DHT22;2751;49.802;9.944;2023-09-30T12:18:11;21.20;87.10
5457;DHT22;2751;49.802;9.944;2023-09-30T12:20:42;21.30;88.20
5457;DHT22;2751;49.802;9.944;2023-09-30T12:23:09;21.30;89.20
5457;DHT22;2751;49.802;9.944;2023-09-30T12:25:36;21.30;90.10
5457;DHT22;2751;49.802;9.944;2023-09-30T12:28:05;21.20;89.40
5457;DHT22;2751;49.802;9.944;2023-09-30T12:30:32;21.10;90.60
5457;DHT22;2751;49.802;9.944;2023-09-30T12:32:59;21.00;90.30
5457;DHT22;2751;49.802;9.944;2023-09-30T12:35:26;21.20;90.40
5457;DHT22;2751;49.802;9.944;2023-09-30T12:37:53;21.30;90.00
5457;DHT22;2751;49.802;9.944;2023-09-30T12:40:20;21.50;90.70
5457;DHT22;2751;49.802;9.944;2023-09-30T12:42:47;21.50;90.90
5457;DHT22;2751;49.802;9.944;2023-09-30T12:45:15;21.50;91.30
5457;DHT22;2751;49.802;9.944;2023-09-30T12:47:43;21.40;92.00
5457;DHT22;2751;49.802;9.944;2023-09-30T12:50:12;21.20;91.80
5457;DHT22;2751;49.802;9.944;2023-09-30T12:52:39;21.00;91.80
5457;DHT22;2751;49.802;9.944;2023-09-30T12:55:06;21.10;91.70
5457;DHT22;2751;49.802;9.944;2023-09-30T12:57:33;21.10;91.40
5457;DHT22;2751;49.802;9.944;2023-09-30T13:00:00;21.20;91.90
5457;DHT22;2751;49.802;9.944;2023-09-30T13:02:30;21.50;91.00
5457;DHT22;2751;49.802;9.944;2023-09-30T13:04:57;21.70;90.20
5457;DHT22;2751;49.802;9.944;2023-09-30T13:07:24;21.90;89.30
5457;DHT22;2751;49.802;9.944;2023-09-30T13:09:51;21.90;89.60
5457;DHT22;2751;49.802;9.944;2023-09-30T13:12:18;22.00;88.80
5457;DHT22;2751;49.802;9.944;2023-09-30T13:14:45;22.00;89.40
5457;DHT22;2751;49.802;9.944;2023-09-30T13:17:12;22.00;88.10
5457;DHT22;2751;49.802;9.944;2023-09-30T13:19:41;21.90;89.30
5457;DHT22;2751;49.802;9.944;2023-09-30T13:22:08;22.10;88.30
5457;DHT22;2751;49.802;9.944;2023-09-30T13:24:35;22.20;88.20
5457;DHT22;2751;49.802;9.944;2023-09-30T13:27:05;22.20;88.50
5457;DHT22;2751;49.802;9.944;2023-09-30T13:29:32;22.10;88.60
5457;DHT22;2751;49.802;9.944;2023-09-30T13:31:59;21.90;88.40
5457;DHT22;2751;49.802;9.944;2023-09-30T13:34:26;21.80;87.50
5457;DHT22;2751;49.802;9.944;2023-09-30T13:36:54;21.80;88.10
5457;DHT22;2751;49.802;9.944;2023-09-30T13:39:21;21.90;85.80
5457;DHT22;2751;49.802;9.944;2023-09-30T13:41:49;21.90;86.60
5457;DHT22;2751;49.802;9.944;2023-09-30T13:44:17;22.00;86.70
5457;DHT22;2751;49.802;9.944;2023-09-30T13:46:44;22.20;85.50
5457;DHT22;2751;49.802;9.944;2023-09-30T13:49:11;22.40;83.40
5457;DHT22;2751;49.802;9.944;2023-09-30T13:51:38;22.40;89.80
5457;DHT22;2751;49.802;9.944;2023-09-30T13:54:06;22.50;82.30
5457;DHT22;2751;49.802;9.944;2023-09-30T13:56:34;22.40;79.70
5457;DHT22;2751;49.802;9.944;2023-09-30T13:59:00;22.30;81.10
5457;DHT22;2751;49.802;9.944;2023-09-30T14:01:28;22.30;81.60
5457;DHT22;2751;49.802;9.944;2023-09-30T14:03:55;22.00;79.90
5457;DHT22;2751;49.802;9.944;2023-09-30T14:06:23;21.90;81.00
5457;DHT22;2751;49.802;9.944;2023-09-30T14:08:50;21.90;80.80
5457;DHT22;2751;49.802;9.944;2023-09-30T14:11:19;21.70;80.50
5457;DHT22;2751;49.802;9.944;2023-09-30T14:13:46;21.70;81.60
5457;DHT22;2751;49.802;9.944;2023-09-30T14:16:14;21.60;78.60
5457;DHT22;2751;49.802;9.944;2023-09-30T14:18:42;21.70;81.40
5457;DHT22;2751;49.802;9.944;2023-09-30T14:21:10;21.60;79.30
5457;DHT22;2751;49.802;9.944;2023-09-30T14:23:37;21.70;79.80
5457;DHT22;2751;49.802;9.944;2023-09-30T14:26:05;21.70;80.00
5457;DHT22;2751;49.802;9.944;2023-09-30T14:28:37;21.80;80.90
5457;DHT22;2751;49.802;9.944;2023-09-30T14:31:04;21.70;81.30
5457;DHT22;2751;49.802;9.944;2023-09-30T14:33:31;21.80;81.20
5457;DHT22;2751;49.802;9.944;2023-09-30T14:35:59;21.80;81.00
5457;DHT22;2751;49.802;9.944;2023-09-30T14:38:26;21.80;81.50
5457;DHT22;2751;49.802;9.944;2023-09-30T14:40:53;21.80;81.20
5457;DHT22;2751;49.802;9.944;2023-09-30T14:43:20;21.70;79.80
5457;DHT22;2751;49.802;9.944;2023-09-30T14:45:48;21.60;81.00
5457;DHT22;2751;49.802;9.944;2023-09-30T14:48:15;21.70;80.60
5457;DHT22;2751;49.802;9.944;2023-09-30T14:50:49;21.80;78.60
5457;DHT22;2751;49.802;9.944;2023-09-30T14:53:16;22.00;78.30
5457;DHT22;2751;49.802;9.944;2023-09-30T14:55:45;21.90;79.60
5457;DHT22;2751;49.802;9.944;2023-09-30T14:58:12;21.60;78.80
5457;DHT22;2751;49.802;9.944;2023-09-30T15:00:39;21.50;79.30
5457;DHT22;2751;49.802;9.944;2023-09-30T15:03:07;21.40;80.10
5457;DHT22;2751;49.802;9.944;2023-09-30T15:05:34;21.20;81.20
5457;DHT22;2751;49.802;9.944;2023-09-30T15:08:01;21.20;79.80
5457;DHT22;2751;49.802;9.944;2023-09-30T15:10:28;21.10;81.50
5457;DHT22;2751;49.802;9.944;2023-09-30T15:12:55;21.10;79.00
5457;DHT22;2751;49.802;9.944;2023-09-30T15:15:23;21.10;80.00
5457;DHT22;2751;49.802;9.944;2023-09-30T15:17:50;21.10;80.00
5457;DHT22;2751;49.802;9.944;2023-09-30T15:20:20;21.10;81.20
5457;DHT22;2751;49.802;9.944;2023-09-30T15:22:47;20.90;80.70
5457;DHT22;2751;49.802;9.944;2023-09-30T15:25:14;20.70;81.10
5457;DHT22;2751;49.802;9.944;2023-09-30T15:27:42;20.70;80.30
5457;DHT22;2751;49.802;9.944;2023-09-30T15:30:10;20.70;84.10
5457;DHT22;2751;49.802;9.944;2023-09-30T15:32:39;20.70;80.90
5457;DHT22;2751;49.802;9.944;2023-09-30T15:35:07;20.60;80.40
5457;DHT22;2751;49.802;9.944;2023-09-30T15:37:35;20.40;82.40
5457;DHT22;2751;49.802;9.944;2023-09-30T15:40:03;20.30;81.60
5457;DHT22;2751;49.802;9.944;2023-09-30T15:42:32;20.20;81.80
5457;DHT22;2751;49.802;9.944;2023-09-30T15:44:59;20.20;81.80
5457;DHT22;2751;49.802;9.944;2023-09-30T15:47:25;20.10;81.60
5457;DHT22;2751;49.802;9.944;2023-09-30T15:49:53;20.00;81.50
5457;DHT22;2751;49.802;9.944;2023-09-30T15:52:20;19.90;82.20
5457;DHT22;2751;49.802;9.944;2023-09-30T15:54:48;19.80;83.30
5457;DHT22;2751;49.802;9.944;2023-09-30T15:57:15;19.80;84.10
5457;DHT22;2751;49.802;9.944;2023-09-30T15:59:42;19.80;84.80
5457;DHT22;2751;49.802;9.944;2023-09-30T16:02:09;19.70;85.50
5457;DHT22;2751;49.802;9.944;2023-09-30T16:04:36;19.60;86.60
5457;DHT22;2751;49.802;9.944;2023-09-30T16:07:03;19.50;86.70
5457;DHT22;2751;49.802;9.944;2023-09-30T16:09:30;19.40;88.00